Skip Navigation LinksHome page > Weather > Current weather Skip Navigation Links

Current Weather

Airport Zuid Limberg, Maastricht, Netherlands

For information only: do not use for flight planning or navigation.
Latest weather
Observation time Friday, December 3, 2021 10:25 AM CET
Local time Friday, December 3, 2021 10:49 AM CET
Flight conditions Visual Meteorological Conditions
Winds
Wind direction South-Southwest (200°)
Winds variable from 170° to 230°
Wind speed 16 mph
Visibility 6.2 mi.
Sky condition
Ceiling unlimited
Cloud layer few clouds 1,500 ft.
Cloud layer scattered clouds 3,400 ft.
Temperature 37°F
Dewpoint 32°F
Altimeter 29.83 in.Hg
Derived measurements
Relative humidity 81%
Wind chill 28°F
Density altitude -873 ft.
Remarks
Fully automated report.
No significant changes expected in the next two hours.
METAR EHBK 030925Z AUTO 20014KT 170V230 9999 FEW015 SCT034 03/00 Q1010 NOSIG

Settings

Location code

InnerDrive.Weather 4.0.6770.0 Release CLR 4.0.30319.42000
Copyright ©2018 Inner Drive Technology. All rights reserved. Portions Copyright ©1986-2018 David Braverman.

Find weather

Site navigation


Skip Navigation Links

Place info

Page info

PayPal - The safer, easier way to pay online!

Return home.

Copyright ©2021 Inner Drive Technology. Purveyors of fine, hand-crafted computer software. Page printed 2021-12-03T09:49:11 UTC.